Art, Indiana
Current Conditions -  °F | °C
As of 5:53 AM on Wednesday 26 Nov 2014 (Local Time) from KHUF Reporting Station
Few Clouds Few Clouds  
Wind Chill: 16°   Ceiling: Unl
Heat Index: 22°   Visibility: 10mi
Dew Point: 18°   Wind: 5mph
Humidity: 85%   Direction: 90°E
Pressure: 30.14"   Gusts: NA
Location:  39.5158°N, 87.1262°W
Report Text: KHUF 261053Z AUTO 09004KT 10SM FEW011 M06/M08 A3014 RMK AO2 SLP214 T10561078
Loading
Personal Weather Stations






























Interactive Weather Map New forecast layout! Learn more

10-Day Weather Forecast

Advertisements
Track Severe Weather on mobile